Time;durP1;ratioP1;P1;durP2;ratioP2;P2;SDS_P1;SDS_P2;PMS_P1;PMS_P2;Temp;Humidity;BMP_temperature;BMP_pressure;BME280_temperature;BME280_humidity;BME280_pressure;Samples;Min_cycle;Max_cycle;Signal;HPM_P1;HPM_P2
2022/04/30 00:00:21;;;;;;;8.48;3.88;;;5.30;99.90;;;;;;5113064;28;20039;-80
2022/04/30 00:02:47;;;;;;;9.65;3.97;;;5.30;99.90;;;;;;5114463;28;20417;-79
2022/04/30 00:05:14;;;;;;;7.95;3.33;;;5.20;99.90;;;;;;5113227;28;20076;-79
2022/04/30 00:07:40;;;;;;;6.97;3.72;;;5.20;99.90;;;;;;5114419;28;20043;-79
2022/04/30 00:10:06;;;;;;;6.13;3.83;;;5.20;99.90;;;;;;5113081;28;20031;-78
2022/04/30 00:12:32;;;;;;;7.68;3.88;;;5.10;99.90;;;;;;5114135;28;20406;-79
2022/04/30 00:14:57;;;;;;;8.02;4.00;;;5.10;99.90;;;;;;5114234;28;20044;-78
2022/04/30 00:17:23;;;;;;;7.40;3.97;;;5.10;99.90;;;;;;5112778;28;20044;-79
2022/04/30 00:19:49;;;;;;;5.63;3.60;;;5.00;99.90;;;;;;5113023;28;20036;-79
2022/04/30 00:22:14;;;;;;;8.45;3.72;;;5.00;99.90;;;;;;5114327;28;20043;-79
2022/04/30 00:24:40;;;;;;;11.35;4.38;;;5.00;99.90;;;;;;5114483;28;20472;-79
2022/04/30 00:27:06;;;;;;;9.88;3.88;;;5.00;99.90;;;;;;5114213;28;20089;-79
2022/04/30 00:29:32;;;;;;;6.07;4.00;;;5.00;99.90;;;;;;5114040;28;20028;-80
2022/04/30 00:32:01;;;;;;;8.38;4.38;;;4.90;99.90;;;;;;5112749;28;20032;-79
2022/04/30 00:34:27;;;;;;;9.48;4.00;;;4.90;99.90;;;;;;5112565;28;20036;-79
2022/04/30 00:36:53;;;;;;;10.27;4.25;;;4.80;99.90;;;;;;5114295;28;20468;-80
2022/04/30 00:39:18;;;;;;;11.13;5.15;;;4.80;99.90;;;;;;5113988;28;20088;-78
2022/04/30 00:41:45;;;;;;;8.13;4.18;;;4.80;99.90;;;;;;5114159;28;20126;-78
2022/04/30 00:44:15;;;;;;;9.68;4.45;;;4.80;99.90;;;;;;5114069;28;20041;-79
2022/04/30 00:46:41;;;;;;;8.38;4.10;;;4.80;99.90;;;;;;5114957;28;20085;-79
2022/04/30 00:49:07;;;;;;;10.25;4.80;;;4.70;99.90;;;;;;5118176;28;20035;-79
2022/04/30 00:51:37;;;;;;;10.45;4.72;;;4.70;99.90;;;;;;5118163;28;20145;-80
2022/04/30 00:54:05;;;;;;;10.65;4.45;;;4.70;99.90;;;;;;5118053;28;20039;-79
2022/04/30 00:56:43;;;;;;;10.65;4.63;;;4.60;99.90;;;;;;5117958;28;20039;-78
2022/04/30 00:59:09;;;;;;;10.10;4.60;;;4.60;99.90;;;;;;5116848;28;20035;-79
2022/04/30 01:01:36;;;;;;;9.30;4.95;;;4.50;99.90;;;;;;5117888;28;20054;-80
2022/04/30 01:04:03;;;;;;;7.28;4.32;;;4.50;99.90;;;;;;5117823;28;20035;-80
2022/04/30 01:06:52;;;;;;;8.98;4.57;;;4.40;99.90;;;;;;5117374;28;20495;-80
2022/04/30 01:09:25;;;;;;;10.50;5.18;;;4.40;99.90;;;;;;5117744;28;20149;-80
2022/04/30 01:12:06;;;;;;;9.75;5.03;;;4.40;99.90;;;;;;5117281;28;20043;-80
2022/04/30 01:14:32;;;;;;;7.88;4.40;;;4.30;99.90;;;;;;5117256;28;20510;-79
2022/04/30 01:17:05;;;;;;;11.30;4.43;;;4.30;99.90;;;;;;5117209;28;20054;-79
2022/04/30 01:19:32;;;;;;;9.10;4.43;;;4.30;99.90;;;;;;5116316;28;20395;-79
2022/04/30 01:22:01;;;;;;;12.05;4.78;;;4.20;99.90;;;;;;5116164;28;20054;-79
2022/04/30 01:24:30;;;;;;;11.68;5.75;;;4.20;99.90;;;;;;5117323;28;20044;-79
2022/04/30 01:26:57;;;;;;;12.77;5.28;;;3.80;99.90;;;;;;5117284;28;20497;-79
2022/04/30 01:29:24;;;;;;;10.40;5.25;;;4.30;99.90;;;;;;5117332;28;20348;-79
2022/04/30 01:37:25;;;;;;;11.30;5.72;;;4.10;99.90;;;;;;5117334;28;20052;-79
2022/04/30 01:40:12;;;;;;;12.40;6.47;;;4.10;99.90;;;;;;5117242;28;20051;-79
2022/04/30 01:42:43;;;;;;;12.57;5.68;;;4.10;99.90;;;;;;5116948;28;20419;-79
2022/04/30 01:45:10;;;;;;;11.13;5.90;;;4.10;99.90;;;;;;5117104;28;20040;-79
2022/04/30 01:47:43;;;;;;;13.20;6.50;;;4.00;99.90;;;;;;5115346;28;20051;-79
2022/04/30 01:50:10;;;;;;;14.10;6.63;;;4.10;99.90;;;;;;5116916;28;20035;-79
2022/04/30 01:52:36;;;;;;;10.70;6.28;;;4.00;99.90;;;;;;5115662;28;20077;-79
2022/04/30 01:55:02;;;;;;;11.68;6.40;;;4.00;99.90;;;;;;5117043;28;20032;-78
2022/04/30 01:57:28;;;;;;;11.90;6.57;;;4.00;99.90;;;;;;5116330;28;20078;-79
2022/04/30 01:59:57;;;;;;;14.45;6.47;;;4.00;99.90;;;;;;5116748;28;20075;-78
2022/04/30 02:02:26;;;;;;;15.02;5.90;;;4.00;99.90;;;;;;5116590;28;20403;-78
2022/04/30 02:04:52;;;;;;;9.93;5.90;;;4.00;99.90;;;;;;5116976;28;20118;-79
2022/04/30 02:07:19;;;;;;;15.73;6.47;;;4.00;99.90;;;;;;5115031;28;20032;-78
2022/04/30 02:09:45;;;;;;;;;;;3.90;99.90;;;;;;5115930;28;20031;-79
2022/04/30 02:12:11;;;;;;;14.40;7.00;;;3.90;99.90;;;;;;5116445;28;19916;-79
2022/04/30 02:14:40;;;;;;;14.13;5.95;;;3.90;99.90;;;;;;5114706;28;20048;-80
2022/04/30 02:17:07;;;;;;;14.30;6.82;;;3.90;99.90;;;;;;5116268;28;20050;-80
2022/04/30 02:20:18;;;;;;;;;;;3.90;99.90;;;;;;5116790;28;20040;-80
2022/04/30 02:22:21;;;;;;;14.75;6.97;;;3.90;99.90;;;;;;5115808;28;19930;-79
2022/04/30 02:24:48;;;;;;;19.02;7.30;;;3.90;99.90;;;;;;5116221;28;20044;-80
2022/04/30 02:27:14;;;;;;;;;;;3.80;99.90;;;;;;5116430;28;20043;-79
2022/04/30 02:29:39;;;;;;;12.82;6.82;;;3.70;99.90;;;;;;5114657;28;19916;-79
2022/04/30 02:32:05;;;;;;;16.30;7.25;;;3.80;99.90;;;;;;5116161;28;20059;-79
2022/04/30 02:34:31;;;;;;;10.68;6.50;;;3.80;99.90;;;;;;5116051;28;20032;-80
2022/04/30 02:36:57;;;;;;;13.18;6.72;;;3.80;99.90;;;;;;5116080;28;20043;-80
2022/04/30 02:39:22;;;;;;;12.55;6.38;;;3.90;99.90;;;;;;5116001;28;20051;-79
2022/04/30 02:41:48;;;;;;;16.08;6.50;;;3.80;99.90;;;;;;5115827;28;20122;-79
2022/04/30 02:44:14;;;;;;;12.38;6.43;;;3.80;99.90;;;;;;5115862;28;20059;-79
2022/04/30 02:46:40;;;;;;;16.55;6.43;;;;;;;;;;5114281;28;20044;-79
2022/04/30 02:49:05;;;;;;;13.55;6.72;;;3.70;99.90;;;;;;5115845;28;20118;-79
2022/04/30 02:51:31;;;;;;;11.52;7.00;;;3.70;99.90;;;;;;5114500;28;20057;-79
2022/04/30 02:53:56;;;;;;;14.50;6.57;;;3.60;99.90;;;;;;5097230;28;20119;-79
2022/04/30 02:56:22;;;;;;;16.38;7.05;;;3.70;99.90;;;;;;5115509;28;20080;-79
2022/04/30 03:01:33;;;;;;;11.80;7.05;;;3.70;99.90;;;;;;5115533;28;20047;-79
2022/04/30 03:04:00;;;;;;;15.40;6.90;;;3.70;99.90;;;;;;5115263;28;20455;-80
2022/04/30 03:06:25;;;;;;;13.20;7.13;;;3.70;99.90;;;;;;5115427;28;20071;-79
2022/04/30 03:08:51;;;;;;;13.40;6.72;;;3.70;99.90;;;;;;5114917;28;20039;-79
2022/04/30 03:11:19;;;;;;;14.90;7.43;;;3.70;99.90;;;;;;5114873;28;20054;-80
2022/04/30 03:13:45;;;;;;;12.00;7.53;;;3.60;99.90;;;;;;5114889;28;20130;-79
2022/04/30 03:21:42;;;;;;;14.57;6.70;;;3.70;99.90;;;;;;5113583;28;20043;-79
2022/04/30 03:24:09;;;;;;;13.40;6.75;;;3.70;99.90;;;;;;5115117;28;20428;-79
2022/04/30 03:26:34;;;;;;;11.70;7.20;;;3.60;99.90;;;;;;5113493;28;20086;-79
2022/04/30 03:29:03;;;;;;;15.10;7.40;;;3.70;99.90;;;;;;5114977;28;20036;-79
2022/04/30 03:31:30;;;;;;;14.10;6.47;;;3.70;99.90;;;;;;5114734;28;20407;-79
2022/04/30 03:33:56;;;;;;;11.65;6.82;;;3.70;99.90;;;;;;5113681;28;20032;-79
2022/04/30 03:36:21;;;;;;;11.00;6.45;;;3.70;99.90;;;;;;5114869;28;20087;-80
2022/04/30 03:38:47;;;;;;;11.70;6.43;;;3.70;99.90;;;;;;5114835;28;20068;-80
2022/04/30 03:41:15;;;;;;;11.70;6.75;;;3.70;99.90;;;;;;5113678;28;20060;-80
2022/04/30 03:43:41;;;;;;;14.57;5.95;;;3.60;99.90;;;;;;5114749;28;20069;-80
2022/04/30 03:46:07;;;;;;;12.00;6.47;;;3.70;99.90;;;;;;5113443;28;20036;-80
2022/04/30 03:48:33;;;;;;;12.95;6.75;;;3.70;99.90;;;;;;5114682;28;20039;-79
2022/04/30 03:50:59;;;;;;;12.68;6.00;;;3.60;99.90;;;;;;5114669;28;20053;-79
2022/04/30 03:53:24;;;;;;;12.35;6.97;;;3.20;99.90;;;;;;5113520;28;20114;-78
2022/04/30 03:55:51;;;;;;;10.25;6.75;;;3.60;99.90;;;;;;5114658;28;20100;-79
2022/04/30 03:58:16;;;;;;;12.65;6.38;;;3.70;99.90;;;;;;5114771;28;20035;-79
2022/04/30 04:00:43;;;;;;;14.77;6.70;;;3.70;99.90;;;;;;5114713;28;20088;-79
2022/04/30 04:03:09;;;;;;;16.05;6.53;;;3.70;99.90;;;;;;5114634;28;20040;-79
2022/04/30 04:05:35;;;;;;;15.50;7.10;;;3.70;99.90;;;;;;5113592;28;20064;-80
2022/04/30 04:08:00;;;;;;;12.80;6.68;;;3.70;99.90;;;;;;5114179;28;20031;-78
2022/04/30 04:10:26;;;;;;;13.50;6.95;;;3.70;99.90;;;;;;5114391;28;20039;-79
2022/04/30 04:12:52;;;;;;;11.30;6.55;;;3.70;99.90;;;;;;5114311;28;20437;-79
2022/04/30 04:18:02;;;;;;;12.30;6.30;;;3.70;99.90;;;;;;5113475;28;20043;-79
2022/04/30 04:20:28;;;;;;;14.23;7.15;;;3.70;99.90;;;;;;5114828;28;20382;-80
2022/04/30 04:22:56;;;;;;;13.15;7.00;;;3.70;99.90;;;;;;5118750;28;20368;-80
2022/04/30 04:28:06;;;;;;;13.88;6.97;;;3.80;99.90;;;;;;5118778;28;20047;-79
2022/04/30 04:30:33;;;;;;;12.88;6.70;;;3.80;99.90;;;;;;5118365;28;20047;-80
2022/04/30 04:32:59;;;;;;;10.80;6.00;;;3.80;99.90;;;;;;5118654;28;20122;-80
2022/04/30 04:35:26;;;;;;;10.47;6.50;;;3.90;99.90;;;;;;5117162;28;20053;-80
2022/04/30 04:37:51;;;;;;;14.63;6.17;;;3.90;99.90;;;;;;5117145;28;20761;-80
2022/04/30 04:40:18;;;;;;;13.05;6.45;;;4.00;99.90;;;;;;5116980;28;20044;-79
2022/04/30 04:42:45;;;;;;;12.40;6.57;;;4.00;99.90;;;;;;5118389;28;20043;-79
2022/04/30 04:45:11;;;;;;;13.10;6.75;;;4.10;99.90;;;;;;5118216;28;20066;-78
2022/04/30 04:47:42;;;;;;;11.27;6.32;;;4.20;99.90;;;;;;5116816;28;20035;-79
2022/04/30 04:50:12;;;;;;;12.68;6.43;;;4.30;99.90;;;;;;5118171;28;20040;-79
2022/04/30 04:52:39;;;;;;;10.18;6.55;;;4.30;99.90;;;;;;5117919;28;20079;-79
2022/04/30 04:55:05;;;;;;;12.32;6.03;;;4.40;99.90;;;;;;5116726;28;20042;-79
2022/04/30 04:57:31;;;;;;;13.25;6.97;;;4.50;99.90;;;;;;5116675;28;20044;-79
2022/04/30 04:59:57;;;;;;;14.85;6.55;;;4.70;99.90;;;;;;5116232;28;20043;-79
2022/04/30 05:02:22;;;;;;;12.05;6.28;;;4.80;99.90;;;;;;5117916;28;20035;-79
2022/04/30 05:04:48;;;;;;;10.80;6.43;;;4.80;99.90;;;;;;5117699;28;20035;-80
2022/04/30 05:07:14;;;;;;;12.93;6.32;;;4.90;99.90;;;;;;5117647;28;20127;-80
2022/04/30 05:09:39;;;;;;;15.57;6.47;;;4.90;99.90;;;;;;5117373;28;20031;-79
2022/04/30 05:12:07;;;;;;;15.15;5.90;;;4.90;99.90;;;;;;5117674;28;20031;-80
2022/04/30 05:14:33;;;;;;;11.52;6.72;;;4.90;99.90;;;;;;5117199;28;20533;-79
2022/04/30 05:17:03;;;;;;;13.38;6.93;;;5.00;99.90;;;;;;5116735;28;20040;-79
2022/04/30 05:19:28;;;;;;;11.70;6.50;;;5.10;99.90;;;;;;5117489;28;20042;-80
2022/04/30 05:21:54;;;;;;;12.70;6.35;;;5.10;99.90;;;;;;5116240;28;20126;-79
2022/04/30 05:24:20;;;;;;;11.90;6.55;;;5.20;99.90;;;;;;5115929;28;20046;-78
2022/04/30 05:26:49;;;;;;;13.50;7.47;;;5.30;99.90;;;;;;5117328;28;20040;-79
2022/04/30 05:29:15;;;;;;;10.50;6.57;;;4.70;99.90;;;;;;5116000;28;20103;-79
2022/04/30 05:31:40;;;;;;;12.30;6.70;;;5.40;99.90;;;;;;5116961;28;20468;-78
2022/04/30 05:34:06;;;;;;;10.38;6.72;;;5.50;99.90;;;;;;5115181;28;20062;-79
2022/04/30 05:36:32;;;;;;;11.27;6.43;;;5.50;99.90;;;;;;5117147;28;20035;-78
2022/04/30 05:38:59;;;;;;;12.10;6.93;;;5.60;99.90;;;;;;5117056;28;20031;-78
2022/04/30 05:41:24;;;;;;;11.82;6.82;;;5.60;99.90;;;;;;5117067;28;20112;-77
2022/04/30 05:43:50;;;;;;;13.27;7.70;;;5.60;99.90;;;;;;5116795;28;20475;-78
2022/04/30 05:46:16;;;;;;;13.80;8.10;;;5.70;99.90;;;;;;5116935;28;20118;-78
2022/04/30 05:48:41;;;;;;;13.10;7.50;;;5.80;99.90;;;;;;5116799;28;20032;-78
2022/04/30 05:51:07;;;;;;;11.38;6.93;;;5.80;99.90;;;;;;5116862;28;20494;-79
2022/04/30 05:53:33;;;;;;;11.98;6.60;;;5.90;99.90;;;;;;5115538;28;20096;-79
2022/04/30 05:55:58;;;;;;;10.88;6.13;;;6.00;99.90;;;;;;5116792;28;20035;-79
2022/04/30 05:58:24;;;;;;;11.20;6.88;;;6.20;99.90;;;;;;5116667;28;20046;-80
2022/04/30 06:00:49;;;;;;;15.45;6.88;;;6.30;99.90;;;;;;5116706;28;20032;-81
2022/04/30 06:03:15;;;;;;;11.15;6.72;;;6.40;99.90;;;;;;5098373;28;20079;-81
2022/04/30 06:05:41;;;;;;;12.02;5.80;;;6.50;99.90;;;;;;5115616;28;20047;-80
2022/04/30 06:08:08;;;;;;;14.55;6.70;;;6.50;99.90;;;;;;5116681;28;20050;-79
2022/04/30 06:10:34;;;;;;;12.95;6.82;;;6.70;99.90;;;;;;5116583;28;20035;-80
2022/04/30 06:12:59;;;;;;;8.27;5.93;;;6.90;99.90;;;;;;5116368;28;20054;-83
2022/04/30 06:15:25;;;;;;;10.75;6.13;;;6.80;99.90;;;;;;5116742;28;20032;-81
2022/04/30 06:17:52;;;;;;;14.55;6.15;;;7.00;99.90;;;;;;5115142;28;20098;-80
2022/04/30 06:20:17;;;;;;;12.93;5.73;;;7.10;99.90;;;;;;5116439;28;20087;-79
2022/04/30 06:22:44;;;;;;;10.35;6.18;;;7.20;99.90;;;;;;5115209;28;20039;-81
2022/04/30 06:25:10;;;;;;;14.80;6.03;;;7.40;99.90;;;;;;5116486;28;20111;-81
2022/04/30 06:27:36;;;;;;;10.40;5.78;;;7.60;99.90;;;;;;5114688;28;20172;-80
2022/04/30 06:30:03;;;;;;;9.40;5.47;;;7.60;99.90;;;;;;5116258;28;20115;-81
2022/04/30 06:32:29;;;;;;;10.88;6.35;;;7.70;99.90;;;;;;5114638;28;20036;-81
2022/04/30 06:34:54;;;;;;;14.13;6.35;;;7.80;99.90;;;;;;5114888;28;20399;-81
2022/04/30 06:37:20;;;;;;;9.90;5.90;;;7.80;99.90;;;;;;5115181;28;20494;-81
2022/04/30 06:39:45;;;;;;;9.77;5.65;;;8.00;99.90;;;;;;5114570;28;20044;-81
2022/04/30 06:42:11;;;;;;;12.65;5.82;;;8.00;99.90;;;;;;5115542;28;20050;-81
2022/04/30 06:44:37;;;;;;;9.02;5.60;;;8.20;99.90;;;;;;5115175;28;20039;-80
2022/04/30 06:47:03;;;;;;;11.80;5.78;;;8.30;99.90;;;;;;5115408;28;20074;-80
2022/04/30 06:49:29;;;;;;;7.45;4.88;;;8.30;99.90;;;;;;5115569;27;20063;-78
2022/04/30 06:51:54;;;;;;;13.70;5.88;;;8.40;99.90;;;;;;5115539;28;20073;-82
2022/04/30 06:57:08;;;;;;;10.40;6.30;;;8.40;99.90;;;;;;5115078;28;20415;-81
2022/04/30 06:59:40;;;;;;;9.05;5.45;;;8.50;99.90;;;;;;5097078;28;20090;-80
2022/04/30 07:02:18;;;;;;;8.27;5.60;;;8.60;99.90;;;;;;5097054;28;20062;-81
2022/04/30 07:04:50;;;;;;;9.90;5.70;;;8.80;99.90;;;;;;5113720;28;20479;-79
2022/04/30 07:07:17;;;;;;;7.93;5.10;;;9.00;99.90;;;;;;5115248;28;20036;-79
2022/04/30 07:09:43;;;;;;;9.35;5.05;;;9.10;99.90;;;;;;5115195;28;20081;-79
2022/04/30 07:12:10;;;;;;;12.95;5.53;;;9.20;99.90;;;;;;5115194;28;20059;-79
2022/04/30 07:14:37;;;;;;;9.10;5.35;;;9.40;99.90;;;;;;5114608;28;20083;-80
2022/04/30 07:17:08;;;;;;;8.52;5.32;;;9.60;99.90;;;;;;5114790;28;20521;-82
2022/04/30 07:19:34;;;;;;;8.77;5.35;;;9.70;99.90;;;;;;5114262;28;20440;-83
2022/04/30 07:22:00;;;;;;;6.73;4.80;;;9.90;99.90;;;;;;5113768;28;20040;-83
2022/04/30 07:24:26;;;;;;;6.45;4.68;;;10.00;99.90;;;;;;5113480;28;20044;-76
2022/04/30 07:26:52;;;;;;;8.88;4.68;;;10.00;99.90;;;;;;5114508;28;20440;-77
2022/04/30 07:29:18;;;;;;;7.18;4.60;;;10.10;99.90;;;;;;5113363;28;20043;-79
2022/04/30 07:31:43;;;;;;;7.68;4.15;;;10.20;99.90;;;;;;5114864;28;20050;-77
2022/04/30 07:34:09;;;;;;;7.97;4.40;;;10.30;99.90;;;;;;5114615;28;20051;-77
2022/04/30 07:36:36;;;;;;;7.53;4.80;;;10.30;99.90;;;;;;5114743;28;20050;-76
2022/04/30 07:39:02;;;;;;;7.28;4.70;;;10.20;99.90;;;;;;5114683;28;20063;-78
2022/04/30 07:41:27;;;;;;;8.67;4.40;;;10.40;99.90;;;;;;5114755;28;20075;-80
2022/04/30 07:43:53;;;;;;;6.75;4.43;;;10.40;99.90;;;;;;5112887;28;20281;-77
2022/04/30 07:46:19;;;;;;;11.35;4.72;;;10.50;99.90;;;;;;5112919;28;20092;-76
2022/04/30 07:48:44;;;;;;;6.70;4.07;;;10.50;99.90;;;;;;5114539;28;20040;-80
2022/04/30 07:51:33;;;;;;;10.38;4.47;;;10.60;99.90;;;;;;5112883;28;20560;-77
2022/04/30 07:54:03;;;;;;;7.20;4.40;;;10.60;99.90;;;;;;5114364;28;20048;-78
2022/04/30 07:56:28;;;;;;;7.75;4.05;;;10.70;99.90;;;;;;5113763;27;20039;-76
2022/04/30 07:58:54;;;;;;;9.07;3.90;;;10.80;99.90;;;;;;5114096;28;20040;-77
2022/04/30 08:01:20;;;;;;;9.68;3.60;;;10.90;99.90;;;;;;5113932;28;20047;-77
2022/04/30 08:03:45;;;;;;;8.27;4.03;;;11.00;99.90;;;;;;5113761;28;20114;-77
2022/04/30 08:06:11;;;;;;;7.07;4.18;;;11.10;99.90;;;;;;5113877;28;20065;-78
2022/04/30 08:08:36;;;;;;;9.23;3.83;;;11.20;99.90;;;;;;5114030;28;20043;-76
2022/04/30 08:11:02;;;;;;;6.32;3.53;;;11.30;99.90;;;;;;5114296;28;20192;-80
2022/04/30 08:13:28;;;;;;;5.28;3.40;;;11.50;99.90;;;;;;5112598;28;20050;-78
2022/04/30 08:15:54;;;;;;;6.43;2.90;;;11.50;99.90;;;;;;5114236;28;20051;-79
2022/04/30 08:18:19;;;;;;;4.40;3.10;;;11.70;99.90;;;;;;5114042;28;20051;-78
2022/04/30 08:20:46;;;;;;;4.95;3.45;;;11.80;99.90;;;;;;5113992;28;20050;-79
2022/04/30 08:23:13;;;;;;;7.10;3.70;;;11.90;99.90;;;;;;5114033;28;20035;-77
2022/04/30 08:25:39;;;;;;;5.45;3.53;;;12.00;99.90;;;;;;5112537;28;20040;-79
2022/04/30 08:28:05;;;;;;;5.93;4.13;;;11.50;99.90;;;;;;5113524;28;20525;-79
2022/04/30 08:30:32;;;;;;;9.85;3.45;;;11.90;99.90;;;;;;5113976;28;20044;-79
2022/04/30 08:32:58;;;;;;;7.00;3.72;;;11.80;99.90;;;;;;5112597;28;20118;-79
2022/04/30 08:35:24;;;;;;;5.68;3.60;;;11.70;99.90;;;;;;5113955;28;20073;-77
2022/04/30 08:37:50;;;;;;;8.10;3.47;;;11.70;99.90;;;;;;5113779;28;20367;-80
2022/04/30 08:40:16;;;;;;;9.48;3.92;;;11.60;99.90;;;;;;5112612;28;20036;-78
2022/04/30 08:42:42;;;;;;;8.23;3.75;;;11.50;99.90;;;;;;5113806;28;20051;-78
2022/04/30 08:45:09;;;;;;;10.57;4.00;;;11.40;99.90;;;;;;5112717;28;20376;-77
2022/04/30 08:47:42;;;;;;;7.93;3.70;;;11.40;99.90;;;;;;5113781;28;20040;-77
2022/04/30 08:50:14;;;;;;;10.93;4.15;;;11.30;99.90;;;;;;5113784;28;20119;-78
2022/04/30 08:52:40;;;;;;;8.63;4.47;;;11.20;99.90;;;;;;5113587;28;20506;-78
2022/04/30 08:55:07;;;;;;;6.38;3.88;;;11.10;99.90;;;;;;5113553;28;20031;-76
2022/04/30 08:57:33;;;;;;;8.20;4.03;;;11.10;99.90;;;;;;5113715;28;20067;-76
2022/04/30 08:59:59;;;;;;;6.47;3.90;;;11.10;99.90;;;;;;5113525;28;20060;-77
2022/04/30 09:02:25;;;;;;;5.00;3.60;;;11.20;99.90;;;;;;5113614;28;20043;-77
2022/04/30 09:04:51;;;;;;;5.72;3.78;;;11.20;99.90;;;;;;5113822;28;20123;-77
2022/04/30 09:07:21;;;;;;;8.47;3.80;;;11.20;99.90;;;;;;5113653;28;20040;-77
2022/04/30 09:09:55;;;;;;;7.65;3.97;;;11.20;99.90;;;;;;5117297;27;20288;-77
2022/04/30 09:12:20;;;;;;;5.40;4.22;;;11.20;99.90;;;;;;5116087;28;20040;-77
2022/04/30 09:14:47;;;;;;;5.95;3.70;;;11.40;99.90;;;;;;5117104;28;20039;-78
2022/04/30 09:17:15;;;;;;;7.75;3.90;;;11.40;99.90;;;;;;5117368;28;20039;-79
2022/04/30 09:19:59;;;;;;;6.47;3.65;;;11.40;99.90;;;;;;5117369;28;20046;-75
2022/04/30 09:22:33;;;;;;;13.77;4.47;;;11.60;99.90;;;;;;5116060;28;20054;-76
2022/04/30 09:25:00;;;;;;;9.48;3.67;;;11.70;99.90;;;;;;5116873;28;20570;-78
2022/04/30 09:27:26;;;;;;;9.07;3.95;;;11.90;99.90;;;;;;5116806;28;20387;-79
2022/04/30 09:29:53;;;;;;;10.35;3.55;;;12.00;99.90;;;;;;5117050;28;20042;-78
2022/04/30 09:32:22;;;;;;;6.97;3.78;;;12.10;99.90;;;;;;5117020;28;20031;-78
2022/04/30 09:37:42;;;;;;;9.43;3.30;;;12.40;99.90;;;;;;5117055;28;20044;-76
2022/04/30 09:40:13;;;;;;;8.23;3.47;;;12.50;99.90;;;;;;5116680;28;20135;-76
2022/04/30 09:42:46;;;;;;;4.85;2.80;;;12.60;99.90;;;;;;5115709;28;20062;-76
2022/04/30 09:45:24;;;;;;;8.45;3.60;;;12.70;99.90;;;;;;5116851;28;20051;-78
2022/04/30 09:47:50;;;;;;;6.07;3.20;;;12.70;99.90;;;;;;5115546;28;20081;-76
2022/04/30 09:55:55;;;;;;;3.80;2.80;;;12.80;99.90;;;;;;5116557;28;20044;-77
2022/04/30 09:58:24;;;;;;;6.35;3.10;;;12.90;99.90;;;;;;5115291;28;20058;-78
2022/04/30 10:00:57;;;;;;;8.07;3.15;;;13.10;99.90;;;;;;5116288;28;20390;-78
2022/04/30 10:03:26;;;;;;;8.63;2.90;;;13.20;99.90;;;;;;5116575;28;20032;-76
2022/04/30 10:05:57;;;;;;;6.00;2.97;;;13.30;99.90;;;;;;5116315;27;20047;-75
2022/04/30 10:08:24;;;;;;;5.28;3.08;;;13.40;99.90;;;;;;5116199;28;20031;-76
2022/04/30 10:10:51;;;;;;;;;;;13.50;99.90;;;;;;5116559;28;20463;-78
2022/04/30 10:13:31;;;;;;;4.43;2.88;;;13.50;99.90;;;;;;5115889;28;19926;-77
2022/04/30 10:15:59;;;;;;;3.72;2.67;;;13.70;99.90;;;;;;5115805;28;20032;-76
2022/04/30 10:18:43;;;;;;;6.57;2.47;;;13.80;99.90;;;;;;5115601;28;20498;-78
2022/04/30 10:21:18;;;;;;;4.38;2.47;;;13.90;99.90;;;;;;5115996;28;20043;-77
2022/04/30 10:23:44;;;;;;;5.93;2.90;;;14.00;99.90;;;;;;5114396;28;20084;-78
2022/04/30 10:26:10;;;;;;;6.65;2.85;;;14.20;99.90;;;;;;5114532;28;20065;-78
2022/04/30 10:28:36;;;;;;;5.17;3.40;;;13.80;99.90;;;;;;5116224;28;20032;-78
2022/04/30 10:31:03;;;;;;;7.85;3.30;;;13.80;99.90;;;;;;5116235;28;20092;-78
2022/04/30 10:33:29;;;;;;;4.50;3.03;;;13.80;99.90;;;;;;5114815;28;20039;-78
2022/04/30 10:36:23;;;;;;;4.78;2.50;;;13.90;99.90;;;;;;5115971;28;20032;-81
2022/04/30 10:38:59;;;;;;;6.10;2.50;;;13.90;99.90;;;;;;5114572;28;20047;-77
2022/04/30 10:41:25;;;;;;;3.85;2.65;;;13.70;99.90;;;;;;5115698;28;20047;-79
2022/04/30 10:44:02;;;;;;;4.10;2.50;;;13.70;99.90;;;;;;5114724;28;20039;-77
2022/04/30 10:46:35;;;;;;;;;;;13.70;99.90;;;;;;5115834;28;20127;-76
2022/04/30 10:49:00;;;;;;;6.65;2.83;;;13.70;99.90;;;;;;5115477;27;20124;-77
2022/04/30 10:51:34;;;;;;;4.00;2.53;;;13.80;99.90;;;;;;5115168;28;20557;-77
2022/04/30 10:54:18;;;;;;;5.45;2.80;;;13.70;99.90;;;;;;5115308;28;20047;-77
2022/04/30 10:56:44;;;;;;;5.22;3.10;;;13.70;99.90;;;;;;5115476;28;20387;-77
2022/04/30 10:59:10;;;;;;;5.18;2.40;;;13.90;99.90;;;;;;5115328;28;20039;-77
2022/04/30 11:01:36;;;;;;;5.68;2.92;;;13.80;99.90;;;;;;5114855;28;20054;-79
2022/04/30 11:04:02;;;;;;;3.67;2.35;;;14.20;99.90;;;;;;5115130;28;20056;-77
2022/04/30 11:06:32;;;;;;;4.43;2.67;;;14.70;99.90;;;;;;5114933;28;20414;-78
2022/04/30 11:09:02;;;;;;;6.65;2.72;;;15.10;99.90;;;;;;5114879;28;20040;-78
2022/04/30 11:11:29;;;;;;;4.00;2.45;;;15.30;99.90;;;;;;5115045;28;20541;-78
2022/04/30 11:14:00;;;;;;;4.43;2.05;;;15.30;99.90;;;;;;5114955;28;20540;-78
2022/04/30 11:16:30;;;;;;;4.50;2.40;;;14.90;99.90;;;;;;5115031;28;20138;-78
2022/04/30 11:19:00;;;;;;;4.63;2.58;;;14.90;99.90;;;;;;5114981;28;20079;-76
2022/04/30 11:21:37;;;;;;;5.65;2.40;;;14.80;99.90;;;;;;5114733;28;20035;-77
2022/04/30 11:24:05;;;;;;;3.90;2.58;;;14.80;99.90;;;;;;5114565;28;20118;-79
2022/04/30 11:26:35;;;;;;;4.65;2.50;;;14.70;99.90;;;;;;5114282;28;20150;-79
2022/04/30 11:29:00;;;;;;;5.05;2.95;;;14.70;99.90;;;;;;5114837;28;20040;-77
2022/04/30 11:31:26;;;;;;;4.37;2.67;;;15.00;99.90;;;;;;5113898;28;20047;-77
2022/04/30 11:33:52;;;;;;;7.37;2.60;;;15.00;99.90;;;;;;5114650;28;20075;-78
2022/04/30 11:36:18;;;;;;;4.43;2.80;;;15.00;99.90;;;;;;5114231;28;20472;-76
2022/04/30 11:38:53;;;;;;;8.07;3.20;;;15.10;99.90;;;;;;5114533;28;20039;-79
2022/04/30 11:41:19;;;;;;;9.32;2.58;;;15.00;99.90;;;;;;5114417;28;20387;-79
2022/04/30 11:43:45;;;;;;;5.70;2.53;;;15.00;99.90;;;;;;5113342;28;20069;-78
2022/04/30 11:46:10;;;;;;;4.60;2.70;;;15.00;99.90;;;;;;5114406;28;20119;-78
2022/04/30 11:48:40;;;;;;;4.30;2.70;;;15.10;99.90;;;;;;5114072;28;20044;-78
2022/04/30 11:51:07;;;;;;;4.95;2.92;;;15.00;99.90;;;;;;5114353;28;20496;-78
2022/04/30 11:53:33;;;;;;;3.85;2.60;;;14.90;99.90;;;;;;5114271;28;20551;-79
2022/04/30 11:55:59;;;;;;;4.55;2.70;;;15.00;99.90;;;;;;5112941;28;20450;-79
2022/04/30 11:58:25;;;;;;;5.33;2.77;;;15.10;99.90;;;;;;5114349;28;20088;-79
2022/04/30 12:00:53;;;;;;;5.03;2.97;;;14.80;99.90;;;;;;5114328;28;20131;-78
2022/04/30 12:03:27;;;;;;;5.15;2.85;;;14.80;99.90;;;;;;5113901;28;20047;-78
2022/04/30 12:05:53;;;;;;;4.97;2.90;;;14.70;99.90;;;;;;5113884;28;20050;-79
2022/04/30 12:08:19;;;;;;;5.00;2.80;;;14.50;99.90;;;;;;5113920;28;20395;-79
2022/04/30 12:10:54;;;;;;;6.00;3.10;;;14.50;99.90;;;;;;5114134;28;20062;-77
2022/04/30 12:13:24;;;;;;;7.25;3.42;;;14.40;99.90;;;;;;5114085;28;20285;-78
2022/04/30 12:16:00;;;;;;;6.82;2.80;;;14.40;99.90;;;;;;5113754;28;20039;-77
2022/04/30 12:27:03;;;;;;;4.57;3.00;;;13.80;99.90;;;;;;5113638;28;20052;-78
2022/04/30 12:29:32;;;;;;;5.28;2.70;;;13.80;99.90;;;;;;5113742;28;20075;-77
2022/04/30 12:32:02;;;;;;;5.03;2.50;;;14.10;99.90;;;;;;5113862;28;20047;-77
2022/04/30 12:34:27;;;;;;;6.43;3.15;;;13.60;99.90;;;;;;5113585;28;20048;-77
2022/04/30 12:36:57;;;;;;;6.53;2.50;;;13.50;99.90;;;;;;5113125;28;20065;-76
2022/04/30 12:39:23;;;;;;;6.38;2.80;;;13.40;99.90;;;;;;5113869;28;20048;-76
2022/04/30 12:41:51;;;;;;;5.22;3.00;;;13.40;99.90;;;;;;5114786;28;20039;-77
2022/04/30 12:44:16;;;;;;;7.45;2.60;;;13.30;99.90;;;;;;5118035;28;20456;-76
2022/04/30 12:46:46;;;;;;;5.33;3.20;;;13.20;99.90;;;;;;5116653;28;20044;-76
2022/04/30 12:49:13;;;;;;;6.05;2.60;;;13.10;99.90;;;;;;5117702;28;20415;-78
2022/04/30 12:51:40;;;;;;;6.95;3.30;;;12.90;99.90;;;;;;5117545;28;20054;-82
2022/04/30 12:54:13;;;;;;;6.55;3.10;;;12.90;99.90;;;;;;5128466;28;20040;-80
2022/04/30 12:56:46;;;;;;;6.32;2.90;;;12.90;99.90;;;;;;5130696;28;20100;-76
2022/04/30 12:59:13;;;;;;;11.45;3.03;;;12.90;99.90;;;;;;5117413;28;20467;-77
2022/04/30 13:01:40;;;;;;;6.05;2.80;;;12.90;99.90;;;;;;5121197;28;20063;-77
2022/04/30 13:04:06;;;;;;;6.10;3.00;;;12.90;99.90;;;;;;5130039;28;20045;-75
2022/04/30 13:06:31;;;;;;;3.63;2.75;;;12.90;99.90;;;;;;5129153;28;20042;-78
2022/04/30 13:14:26;;;;;;;5.40;3.05;;;12.70;99.90;;;;;;5129386;28;20051;-76
2022/04/30 13:16:52;;;;;;;4.43;2.80;;;12.70;99.90;;;;;;5128049;27;20059;-74
2022/04/30 13:19:17;;;;;;;4.68;2.63;;;12.60;99.90;;;;;;5128677;27;20127;-72
2022/04/30 13:21:46;;;;;;;4.40;2.70;;;12.60;99.90;;;;;;5121490;28;20077;-73
2022/04/30 13:24:13;;;;;;;7.20;3.15;;;12.60;99.90;;;;;;5118352;28;20043;-77
2022/04/30 13:26:39;;;;;;;;;;;12.50;99.90;;;;;;5119027;28;20487;-77
2022/04/30 13:29:04;;;;;;;4.40;3.08;;;12.50;99.90;;;;;;5117874;28;19920;-75
2022/04/30 13:31:30;;;;;;;6.88;3.15;;;12.40;99.90;;;;;;5117162;28;20055;-74
2022/04/30 13:33:55;;;;;;;7.72;2.92;;;12.40;99.90;;;;;;5118274;28;20057;-76
2022/04/30 13:36:21;;;;;;;6.50;3.28;;;12.40;99.90;;;;;;5117392;28;20126;-75